createdAt,value
2022-08-01T00:01:48.573Z,99.90
2022-08-01T00:04:17.132Z,99.90
2022-08-01T00:06:45.940Z,99.90
2022-08-01T00:09:23.723Z,99.90
2022-08-01T00:11:59.553Z,99.90
2022-08-01T00:14:32.295Z,99.90
2022-08-01T00:17:07.112Z,99.90
2022-08-01T00:19:36.743Z,99.90
2022-08-01T00:22:05.658Z,99.90
2022-08-01T00:24:34.652Z,99.90
2022-08-01T00:27:04.742Z,99.90
2022-08-01T00:30:11.997Z,99.90
2022-08-01T00:32:22.184Z,99.90
2022-08-01T00:34:52.022Z,99.90
2022-08-01T00:37:21.182Z,99.90
2022-08-01T00:39:49.771Z,99.90
2022-08-01T00:42:19.971Z,99.90
2022-08-01T00:44:49.243Z,99.90
2022-08-01T00:47:20.902Z,99.90
2022-08-01T00:49:49.663Z,99.90
2022-08-01T00:52:18.431Z,99.90
2022-08-01T00:54:48.032Z,99.90
2022-08-01T00:57:16.772Z,99.90
2022-08-01T01:00:09.491Z,99.90
2022-08-01T01:02:39.021Z,99.90
2022-08-01T01:05:08.692Z,99.90
2022-08-01T01:07:50.686Z,99.90
2022-08-01T01:10:23.350Z,99.90
2022-08-01T01:12:58.374Z,99.90
2022-08-01T01:15:33.163Z,99.90
2022-08-01T01:18:06.519Z,99.90
2022-08-01T01:20:39.271Z,99.90
2022-08-01T01:23:26.651Z,99.90
2022-08-01T01:26:12.183Z,99.90
2022-08-01T01:29:11.101Z,99.90
2022-08-01T01:31:46.662Z,99.90
2022-08-01T01:34:17.771Z,99.90
2022-08-01T01:36:48.808Z,99.90
2022-08-01T01:39:18.659Z,99.90
2022-08-01T01:41:49.361Z,99.90
2022-08-01T01:44:20.812Z,99.90
2022-08-01T01:46:55.571Z,99.90
2022-08-01T01:49:26.970Z,99.90
2022-08-01T01:52:02.101Z,99.90
2022-08-01T01:54:35.251Z,99.90
2022-08-01T01:57:06.466Z,99.90
2022-08-01T01:59:40.165Z,99.90
2022-08-01T02:02:10.297Z,99.90
2022-08-01T02:04:43.671Z,99.90
2022-08-01T02:07:14.851Z,99.90
2022-08-01T02:09:45.362Z,99.90
2022-08-01T02:12:16.329Z,99.90
2022-08-01T02:14:48.792Z,99.90
2022-08-01T02:17:19.752Z,99.90
2022-08-01T02:19:49.272Z,99.90
2022-08-01T02:22:23.722Z,99.90
2022-08-01T02:24:56.316Z,99.90
2022-08-01T02:27:31.273Z,99.90
2022-08-01T02:30:03.630Z,99.90
2022-08-01T02:32:36.690Z,99.90
2022-08-01T02:35:06.093Z,99.90
2022-08-01T02:37:37.523Z,99.90
2022-08-01T02:40:14.517Z,99.90
2022-08-01T02:42:46.023Z,99.90
2022-08-01T02:45:18.754Z,99.90
2022-08-01T02:47:49.743Z,99.90
2022-08-01T02:50:20.302Z,99.90
2022-08-01T02:52:53.272Z,99.90
2022-08-01T02:55:23.760Z,99.90
2022-08-01T02:57:56.882Z,99.90
2022-08-01T03:00:32.078Z,99.90
2022-08-01T03:03:02.564Z,99.90
2022-08-01T03:05:33.072Z,99.90
2022-08-01T03:08:03.772Z,99.90
2022-08-01T03:10:34.333Z,99.90
2022-08-01T03:13:05.353Z,99.90
2022-08-01T03:15:38.441Z,99.90
2022-08-01T03:18:09.932Z,99.90
2022-08-01T03:20:39.204Z,99.90
2022-08-01T03:23:10.514Z,99.90
2022-08-01T03:25:43.413Z,99.90
2022-08-01T03:28:16.311Z,99.90
2022-08-01T03:30:47.124Z,99.90
2022-08-01T03:33:15.944Z,99.90
2022-08-01T03:35:49.095Z,99.90
2022-08-01T03:38:21.603Z,99.90
2022-08-01T03:40:56.412Z,99.90
2022-08-01T03:43:32.141Z,99.90
2022-08-01T03:46:08.803Z,99.90
2022-08-01T03:48:43.183Z,99.90
2022-08-01T03:51:14.483Z,99.90
2022-08-01T03:53:45.753Z,99.90
2022-08-01T03:56:16.129Z,99.90
2022-08-01T03:58:50.154Z,99.90
2022-08-01T04:01:21.297Z,99.90
2022-08-01T04:03:50.630Z,99.90
2022-08-01T04:06:19.343Z,99.90
2022-08-01T04:08:56.934Z,99.90
2022-08-01T04:11:28.303Z,99.90
2022-08-01T04:13:58.354Z,99.90
2022-08-01T04:16:28.824Z,99.90
2022-08-01T04:18:59.788Z,99.90
2022-08-01T04:21:30.319Z,99.90
2022-08-01T04:24:08.838Z,99.90
2022-08-01T04:26:38.603Z,99.90
2022-08-01T04:29:09.019Z,99.90
2022-08-01T04:31:40.688Z,99.90
2022-08-01T04:34:11.160Z,99.90
2022-08-01T04:36:43.041Z,99.90
2022-08-01T04:39:12.108Z,99.90
2022-08-01T04:41:42.325Z,99.90
2022-08-01T04:44:11.374Z,99.90
2022-08-01T04:46:43.034Z,99.90
2022-08-01T04:49:13.707Z,99.90
2022-08-01T04:51:53.536Z,99.90
2022-08-01T04:54:22.634Z,99.90
2022-08-01T04:56:51.862Z,99.90
2022-08-01T04:59:40.301Z,99.90
2022-08-01T05:02:12.486Z,99.90
2022-08-01T05:04:42.740Z,99.90
2022-08-01T05:07:12.198Z,99.90
2022-08-01T05:09:43.437Z,99.90
2022-08-01T05:12:12.340Z,99.90
2022-08-01T05:14:41.400Z,99.90
2022-08-01T05:17:12.267Z,99.90
2022-08-01T05:19:42.038Z,99.90
2022-08-01T05:22:11.749Z,99.90
2022-08-01T05:24:41.859Z,99.90
2022-08-01T05:27:11.683Z,99.90
2022-08-01T05:29:44.791Z,99.90
2022-08-01T05:32:15.168Z,99.90
2022-08-01T05:34:43.800Z,99.90
2022-08-01T05:37:12.501Z,99.90
2022-08-01T05:39:41.290Z,99.90
2022-08-01T05:42:09.931Z,99.90
2022-08-01T05:44:38.687Z,99.90
2022-08-01T05:47:07.550Z,99.90
2022-08-01T05:49:37.696Z,99.90
2022-08-01T05:52:06.848Z,99.90
2022-08-01T05:54:35.799Z,99.90
2022-08-01T05:57:04.459Z,99.90
2022-08-01T05:59:33.264Z,99.90
2022-08-01T06:02:02.345Z,99.90
2022-08-01T06:04:31.078Z,99.90
2022-08-01T06:07:01.178Z,99.90
2022-08-01T06:09:30.179Z,99.90
2022-08-01T06:11:58.929Z,99.90
2022-08-01T06:14:27.500Z,99.90
2022-08-01T06:16:56.759Z,99.90
2022-08-01T06:19:25.398Z,99.90
2022-08-01T06:21:54.100Z,99.90
2022-08-01T06:24:25.158Z,99.90
2022-08-01T06:26:54.130Z,99.90
2022-08-01T06:29:22.850Z,99.90
2022-08-01T06:31:51.745Z,99.90
2022-08-01T06:34:20.487Z,99.90
2022-08-01T06:36:50.548Z,99.90
2022-08-01T06:39:24.069Z,99.90
2022-08-01T06:41:52.788Z,99.90
2022-08-01T06:44:21.398Z,99.90
2022-08-01T06:46:50.479Z,99.90
2022-08-01T06:49:19.197Z,99.90
2022-08-01T06:51:48.300Z,99.90
2022-08-01T06:54:17.266Z,99.90
2022-08-01T06:56:47.511Z,99.90
2022-08-01T06:59:16.186Z,99.90
2022-08-01T07:01:44.888Z,99.90
2022-08-01T07:04:13.649Z,99.90
2022-08-01T07:06:42.298Z,99.90
2022-08-01T07:09:14.057Z,99.90
2022-08-01T07:11:44.658Z,99.90
2022-08-01T07:14:14.828Z,99.90
2022-08-01T07:16:43.487Z,99.90
2022-08-01T07:19:12.206Z,99.90
2022-08-01T07:21:41.421Z,99.90
2022-08-01T07:24:13.737Z,99.90
2022-08-01T07:26:53.419Z,99.90
2022-08-01T07:29:25.089Z,99.90
2022-08-01T07:31:54.235Z,99.90
2022-08-01T07:34:23.399Z,99.90
2022-08-01T07:36:52.558Z,99.90
2022-08-01T07:39:21.371Z,99.90
2022-08-01T07:42:06.581Z,99.90
2022-08-01T07:44:38.648Z,99.90
2022-08-01T07:47:08.004Z,99.90
2022-08-01T07:49:40.207Z,99.90
2022-08-01T07:52:09.837Z,99.90
2022-08-01T07:54:38.685Z,99.90
2022-08-01T07:57:08.334Z,99.90
2022-08-01T07:59:38.837Z,99.90
2022-08-01T08:02:07.822Z,99.90
2022-08-01T08:04:36.645Z,99.90
2022-08-01T08:07:05.769Z,99.90
2022-08-01T08:09:38.017Z,99.90
2022-08-01T08:12:08.631Z,99.90
2022-08-01T08:14:39.258Z,99.90
2022-08-01T08:17:08.397Z,99.90
2022-08-01T08:19:39.287Z,99.90
2022-08-01T08:22:09.110Z,99.90
2022-08-01T08:24:46.106Z,99.90
2022-08-01T08:27:15.906Z,99.90
2022-08-01T08:29:45.960Z,99.90
2022-08-01T08:32:14.838Z,99.90
2022-08-01T08:34:44.128Z,93.60
2022-08-01T08:37:12.918Z,93.30
2022-08-01T08:39:42.844Z,92.00
2022-08-01T08:42:12.550Z,99.90
2022-08-01T08:44:44.341Z,92.80
2022-08-01T08:47:20.156Z,90.70
2022-08-01T08:49:50.873Z,75.40
2022-08-01T08:52:22.283Z,65.60
2022-08-01T08:54:53.588Z,59.90
2022-08-01T08:57:23.151Z,53.20
2022-08-01T08:59:55.311Z,52.80
2022-08-01T09:02:25.559Z,53.80
2022-08-01T09:04:54.888Z,54.90
2022-08-01T09:07:24.325Z,51.10
2022-08-01T09:09:53.068Z,49.40
2022-08-01T09:12:22.579Z,48.00
2022-08-01T09:14:54.878Z,45.30
2022-08-01T09:17:24.688Z,41.90
2022-08-01T09:19:55.470Z,42.80
2022-08-01T09:22:27.388Z,45.10
2022-08-01T09:25:06.182Z,40.90
2022-08-01T09:27:35.908Z,42.10
2022-08-01T09:30:13.167Z,39.20
2022-08-01T09:33:11.188Z,39.40
2022-08-01T09:35:57.348Z,38.70
2022-08-01T09:38:28.330Z,39.50
2022-08-01T09:40:59.665Z,36.10
2022-08-01T09:43:32.255Z,36.00
2022-08-01T09:46:02.258Z,37.30
2022-08-01T09:48:33.863Z,37.00
2022-08-01T09:51:07.265Z,37.60
2022-08-01T09:53:52.655Z,35.10
2022-08-01T09:56:23.705Z,35.30
2022-08-01T09:59:02.789Z,33.90
2022-08-01T10:01:44.798Z,33.40
2022-08-01T10:04:17.066Z,32.30
2022-08-01T10:07:02.936Z,30.80
2022-08-01T10:09:40.353Z,32.60
2022-08-01T10:12:15.522Z,30.10
2022-08-01T10:14:46.201Z,34.50
2022-08-01T10:17:18.190Z,33.30
2022-08-01T10:19:50.802Z,32.50
2022-08-01T10:22:22.117Z,33.60
2022-08-01T10:24:53.199Z,30.60
2022-08-01T10:27:37.927Z,33.80
2022-08-01T10:30:20.144Z,33.40
2022-08-01T10:32:58.948Z,30.90
2022-08-01T10:35:47.454Z,32.20
2022-08-01T10:38:18.088Z,34.20
2022-08-01T10:40:47.667Z,32.30
2022-08-01T10:43:26.124Z,32.50
2022-08-01T10:45:55.372Z,31.70
2022-08-01T10:48:31.304Z,32.20
2022-08-01T10:51:18.834Z,31.40
2022-08-01T10:53:54.024Z,29.70
2022-08-01T10:56:26.788Z,30.70
2022-08-01T10:59:06.606Z,32.60
2022-08-01T11:01:45.037Z,36.10
2022-08-01T11:04:17.449Z,37.00
2022-08-01T11:07:06.975Z,36.70
2022-08-01T11:09:48.206Z,39.20
2022-08-01T11:12:24.791Z,39.30
2022-08-01T11:15:32.127Z,37.00
2022-08-01T11:18:04.523Z,36.60
2022-08-01T11:20:39.474Z,33.90
2022-08-01T11:23:36.346Z,34.20
2022-08-01T11:26:29.373Z,33.90
2022-08-01T11:29:21.097Z,31.00
2022-08-01T11:31:53.052Z,34.80
2022-08-01T11:34:22.345Z,35.20
2022-08-01T11:37:26.197Z,32.80
2022-08-01T11:40:20.772Z,29.40
2022-08-01T11:43:07.751Z,30.80
2022-08-01T11:45:50.101Z,28.90
2022-08-01T11:48:23.342Z,31.30
2022-08-01T11:51:02.244Z,29.30
2022-08-01T11:53:32.432Z,29.70
2022-08-01T11:56:04.335Z,28.90
2022-08-01T11:58:34.852Z,30.10
2022-08-01T12:01:04.322Z,29.20
2022-08-01T12:03:34.923Z,29.70
2022-08-01T12:06:04.560Z,27.10
2022-08-01T12:08:37.718Z,27.10
2022-08-01T12:11:08.888Z,29.20
2022-08-01T12:13:45.952Z,27.90
2022-08-01T12:16:15.812Z,28.10
2022-08-01T12:18:45.414Z,27.10
2022-08-01T12:21:14.612Z,30.20
2022-08-01T12:23:43.422Z,28.10
2022-08-01T12:26:28.570Z,27.80
2022-08-01T12:29:04.251Z,28.60
2022-08-01T12:31:36.431Z,27.70
2022-08-01T12:34:30.451Z,28.60
2022-08-01T12:37:04.632Z,28.20
2022-08-01T12:39:35.822Z,27.90
2022-08-01T12:42:12.373Z,28.00
2022-08-01T12:44:42.522Z,26.40
2022-08-01T12:47:12.720Z,25.90
2022-08-01T12:49:46.521Z,27.60
2022-08-01T12:52:15.764Z,27.90
2022-08-01T12:55:09.861Z,27.50
2022-08-01T12:57:43.193Z,26.70
2022-08-01T13:00:18.764Z,27.30
2022-08-01T13:05:46.182Z,27.40
2022-08-01T13:08:16.243Z,26.70
2022-08-01T13:10:46.158Z,27.40
2022-08-01T13:13:27.758Z,25.70
2022-08-01T13:16:12.176Z,28.00
2022-08-01T13:18:55.506Z,25.90
2022-08-01T13:21:28.703Z,25.70
2022-08-01T13:24:06.386Z,28.30
2022-08-01T13:26:45.969Z,27.90
2022-08-01T13:29:17.977Z,28.50
2022-08-01T13:31:47.276Z,28.80
2022-08-01T13:34:17.848Z,29.50
2022-08-01T13:36:49.612Z,30.10
2022-08-01T13:39:36.110Z,27.30
2022-08-01T13:42:05.884Z,31.00
2022-08-01T13:44:36.157Z,29.90
2022-08-01T13:47:15.150Z,30.50
2022-08-01T13:49:45.009Z,29.10
2022-08-01T13:52:13.745Z,28.30
2022-08-01T13:54:42.589Z,28.20
2022-08-01T13:57:11.941Z,27.70
2022-08-01T13:59:42.077Z,28.80
2022-08-01T14:02:10.956Z,28.60
2022-08-01T14:04:39.646Z,28.80
2022-08-01T14:07:11.772Z,26.50
2022-08-01T14:10:04.555Z,26.80
2022-08-01T14:12:32.011Z,26.10
2022-08-01T14:15:03.348Z,28.10
2022-08-01T14:17:32.054Z,29.00
2022-08-01T14:20:07.276Z,27.90
2022-08-01T14:22:36.286Z,29.20
2022-08-01T14:25:05.046Z,29.20
2022-08-01T14:27:37.498Z,28.50
2022-08-01T14:30:09.206Z,28.50
2022-08-01T14:32:38.639Z,28.50
2022-08-01T14:35:09.338Z,29.90
2022-08-01T14:37:38.755Z,30.60
2022-08-01T14:40:10.538Z,30.30
2022-08-01T14:42:40.101Z,31.40
2022-08-01T14:45:11.709Z,29.30
2022-08-01T14:47:41.005Z,28.80
2022-08-01T14:50:11.897Z,31.30
2022-08-01T14:52:42.322Z,30.00
2022-08-01T14:55:12.879Z,30.30
2022-08-01T14:57:42.530Z,33.10
2022-08-01T15:00:14.838Z,32.50
2022-08-01T15:02:43.956Z,31.20
2022-08-01T15:05:12.695Z,28.40
2022-08-01T15:07:51.603Z,34.90
2022-08-01T15:10:22.917Z,33.90
2022-08-01T15:12:55.429Z,34.80
2022-08-01T15:15:26.328Z,35.00
2022-08-01T15:17:55.094Z,35.80
2022-08-01T15:20:23.775Z,32.40
2022-08-01T15:22:54.269Z,35.80
2022-08-01T15:25:23.358Z,34.40
2022-08-01T15:27:52.417Z,39.00
2022-08-01T15:30:23.664Z,38.90
2022-08-01T15:33:00.718Z,37.50
2022-08-01T15:35:29.671Z,37.00
2022-08-01T15:37:58.457Z,38.10
2022-08-01T15:40:28.178Z,36.90
2022-08-01T15:42:56.992Z,38.20
2022-08-01T15:48:17.773Z,40.10
2022-08-01T15:50:46.598Z,41.90
2022-08-01T15:53:15.218Z,38.30
2022-08-01T15:55:52.117Z,38.30
2022-08-01T15:58:21.555Z,39.50
2022-08-01T16:00:50.640Z,42.60
2022-08-01T16:03:22.107Z,43.50
2022-08-01T16:05:51.436Z,44.20
2022-08-01T16:08:20.046Z,44.20
2022-08-01T16:10:50.828Z,42.60
2022-08-01T16:13:19.627Z,42.60
2022-08-01T16:15:48.307Z,45.90
2022-08-01T16:18:17.098Z,45.30
2022-08-01T16:20:47.218Z,45.70
2022-08-01T16:23:16.621Z,47.30
2022-08-01T16:25:45.580Z,47.80
2022-08-01T16:28:14.761Z,48.70
2022-08-01T16:30:48.633Z,48.00
2022-08-01T16:33:46.161Z,49.00
2022-08-01T16:36:19.116Z,49.90
2022-08-01T16:38:48.335Z,51.80
2022-08-01T16:41:19.913Z,53.50
2022-08-01T16:43:53.666Z,50.50
2022-08-01T16:46:25.137Z,53.80
2022-08-01T16:48:54.966Z,54.80
2022-08-01T16:51:25.231Z,54.90
2022-08-01T16:53:53.878Z,58.00
2022-08-01T16:56:22.717Z,57.60
2022-08-01T16:59:00.577Z,56.10
2022-08-01T17:01:57.918Z,57.60
2022-08-01T17:04:18.398Z,58.30
2022-08-01T17:06:48.698Z,61.00
2022-08-01T17:09:17.627Z,57.60
2022-08-01T17:11:46.477Z,64.60
2022-08-01T17:14:15.487Z,60.50
2022-08-01T17:16:44.135Z,68.00
2022-08-01T17:19:12.749Z,63.20
2022-08-01T17:21:43.568Z,65.90
2022-08-01T17:24:16.418Z,61.50
2022-08-01T17:26:45.387Z,62.20
2022-08-01T17:29:14.016Z,64.70
2022-08-01T17:31:42.671Z,64.10
2022-08-01T17:34:11.307Z,64.60
2022-08-01T17:36:40.086Z,67.60
2022-08-01T17:39:09.607Z,65.40
2022-08-01T17:41:40.017Z,66.20
2022-08-01T17:44:08.787Z,69.40
2022-08-01T17:46:37.679Z,72.70
2022-08-01T17:49:06.583Z,75.20
2022-08-01T17:51:35.236Z,72.90
2022-08-01T17:54:04.147Z,69.70
2022-08-01T17:56:38.099Z,71.40
2022-08-01T17:59:09.357Z,72.10
2022-08-01T18:01:38.038Z,71.40
2022-08-01T18:04:14.096Z,71.60
2022-08-01T18:06:58.147Z,74.70
2022-08-01T18:09:32.889Z,73.90
2022-08-01T18:12:04.955Z,74.00
2022-08-01T18:14:40.736Z,77.70
2022-08-01T18:17:11.497Z,74.60
2022-08-01T18:19:40.488Z,75.00
2022-08-01T18:22:14.515Z,80.40
2022-08-01T18:25:03.923Z,79.80
2022-08-01T18:28:22.709Z,84.70
2022-08-01T18:30:29.370Z,80.20
2022-08-01T18:33:00.676Z,86.70
2022-08-01T18:35:35.095Z,93.60
2022-08-01T18:38:18.358Z,95.70
2022-08-01T18:40:51.826Z,92.90
2022-08-01T18:43:22.127Z,95.30
2022-08-01T18:45:52.605Z,99.90
2022-08-01T18:48:21.807Z,99.90
2022-08-01T18:50:57.020Z,99.90
2022-08-01T18:53:25.848Z,99.90
2022-08-01T18:55:54.559Z,99.90
2022-08-01T18:58:23.766Z,99.90
2022-08-01T19:00:58.351Z,99.90
2022-08-01T19:03:27.268Z,99.90
2022-08-01T19:05:56.239Z,99.90
2022-08-01T19:08:25.288Z,99.90
2022-08-01T19:10:57.658Z,99.90
2022-08-01T19:13:29.478Z,99.90
2022-08-01T19:16:00.398Z,99.90
2022-08-01T19:18:29.707Z,99.90
2022-08-01T19:21:01.308Z,99.90
2022-08-01T19:23:47.787Z,99.90
2022-08-01T19:26:18.578Z,99.90
2022-08-01T19:28:54.508Z,99.90
2022-08-01T19:31:28.157Z,99.90
2022-08-01T19:33:58.908Z,99.90
2022-08-01T19:36:28.607Z,99.90
2022-08-01T19:38:58.288Z,99.90
2022-08-01T19:41:27.159Z,99.90
2022-08-01T19:43:56.777Z,99.90
2022-08-01T19:46:27.356Z,99.90
2022-08-01T19:48:57.020Z,99.90
2022-08-01T19:51:32.930Z,99.90
2022-08-01T19:54:06.898Z,99.90
2022-08-01T19:56:39.935Z,99.90
2022-08-01T19:59:09.627Z,99.90
2022-08-01T20:01:39.849Z,99.90
2022-08-01T20:04:10.227Z,99.90
2022-08-01T20:06:39.288Z,99.90
2022-08-01T20:09:08.374Z,99.90
2022-08-01T20:11:37.787Z,99.90
2022-08-01T20:14:06.477Z,99.90
2022-08-01T20:16:35.548Z,99.90
2022-08-01T20:19:06.377Z,99.90
2022-08-01T20:21:36.963Z,99.90
2022-08-01T20:24:07.968Z,99.90
2022-08-01T20:26:38.266Z,99.90
2022-08-01T20:29:06.997Z,99.90
2022-08-01T20:31:44.121Z,99.90
2022-08-01T20:34:17.467Z,99.90
2022-08-01T20:36:48.094Z,99.90
2022-08-01T20:39:25.065Z,99.90
2022-08-01T20:41:59.617Z,99.90
2022-08-01T20:44:32.550Z,99.90
2022-08-01T20:47:02.519Z,99.90
2022-08-01T20:49:32.900Z,99.90
2022-08-01T20:52:10.914Z,99.90
2022-08-01T20:54:41.352Z,99.90
2022-08-01T20:57:16.170Z,99.90
2022-08-01T20:59:56.523Z,99.90
2022-08-01T21:02:41.539Z,99.90
2022-08-01T21:05:13.078Z,99.90
2022-08-01T21:07:48.287Z,99.90
2022-08-01T21:10:19.691Z,99.90
2022-08-01T21:12:51.671Z,99.90
2022-08-01T21:15:28.627Z,99.90
2022-08-01T21:18:03.349Z,99.90
2022-08-01T21:20:35.091Z,99.90
2022-08-01T21:23:15.088Z,99.90
2022-08-01T21:25:44.617Z,99.90
2022-08-01T21:28:15.767Z,99.90
2022-08-01T21:30:55.700Z,99.90
2022-08-01T21:33:26.748Z,99.90
2022-08-01T21:36:04.193Z,99.90
2022-08-01T21:38:37.258Z,99.90
2022-08-01T21:41:09.938Z,99.90
2022-08-01T21:43:39.547Z,99.90
2022-08-01T21:46:08.399Z,99.90
2022-08-01T21:48:38.908Z,99.90
2022-08-01T21:51:23.782Z,99.90
2022-08-01T21:54:19.891Z,99.90
2022-08-01T21:57:03.772Z,99.90
2022-08-01T21:59:42.147Z,99.90
2022-08-01T22:09:52.543Z,99.90
2022-08-01T22:12:22.066Z,99.90
2022-08-01T22:14:55.480Z,99.90
2022-08-01T22:17:26.311Z,99.90
2022-08-01T22:19:56.485Z,99.90
2022-08-01T22:22:44.945Z,99.90
2022-08-01T22:25:16.365Z,99.90
2022-08-01T22:28:06.645Z,99.90
2022-08-01T22:30:41.865Z,99.90
2022-08-01T22:33:16.256Z,99.90
2022-08-01T22:35:47.293Z,99.90
2022-08-01T22:38:18.120Z,99.90
2022-08-01T22:40:52.224Z,99.90
2022-08-01T22:43:27.719Z,99.90
2022-08-01T22:46:16.180Z,99.90
2022-08-01T22:48:51.684Z,99.90
2022-08-01T22:51:33.488Z,99.90
2022-08-01T22:54:06.908Z,99.90
2022-08-01T22:56:40.581Z,99.90
2022-08-01T22:59:15.343Z,99.90
2022-08-01T23:01:48.559Z,99.90
2022-08-01T23:04:33.003Z,99.90
2022-08-01T23:07:05.243Z,99.90
2022-08-01T23:09:52.616Z,99.90
2022-08-01T23:12:26.606Z,99.90
2022-08-01T23:14:57.336Z,99.90
2022-08-01T23:17:29.147Z,99.90
2022-08-01T23:20:04.201Z,99.90
2022-08-01T23:22:35.643Z,99.90
2022-08-01T23:25:08.939Z,99.90
2022-08-01T23:28:04.185Z,99.90
2022-08-01T23:30:32.862Z,99.90
2022-08-01T23:33:02.274Z,99.90
2022-08-01T23:35:36.908Z,99.90
2022-08-01T23:38:10.388Z,99.90
2022-08-01T23:40:40.240Z,99.90
2022-08-01T23:43:16.190Z,99.90
2022-08-01T23:46:02.840Z,99.90
2022-08-01T23:48:35.041Z,99.90
2022-08-01T23:51:04.443Z,99.90
2022-08-01T23:53:33.960Z,99.90
2022-08-01T23:56:05.380Z,99.90
2022-08-01T23:58:35.739Z,99.90
